createdAt,value
2023-03-04T00:00:50.273Z,99.90
2023-03-04T00:03:24.027Z,99.90
2023-03-04T00:05:53.778Z,99.90
2023-03-04T00:08:25.001Z,99.90
2023-03-04T00:10:54.748Z,99.90
2023-03-04T00:13:24.541Z,99.90
2023-03-04T00:15:55.140Z,99.90
2023-03-04T00:18:24.485Z,99.90
2023-03-04T00:20:54.775Z,99.90
2023-03-04T00:23:25.654Z,99.90
2023-03-04T00:25:55.668Z,99.90
2023-03-04T00:28:25.173Z,99.90
2023-03-04T00:30:54.845Z,99.90
2023-03-04T00:33:24.134Z,99.90
2023-03-04T00:35:54.554Z,99.90
2023-03-04T00:38:25.422Z,99.90
2023-03-04T00:40:55.403Z,99.90
2023-03-04T00:43:26.653Z,99.90
2023-03-04T00:45:56.623Z,99.90
2023-03-04T00:48:26.922Z,99.90
2023-03-04T00:50:56.596Z,99.90
2023-03-04T00:53:27.385Z,99.90
2023-03-04T00:55:57.129Z,99.90
2023-03-04T00:58:26.393Z,99.90
2023-03-04T01:00:56.651Z,99.90
2023-03-04T01:03:27.162Z,99.90
2023-03-04T01:05:56.874Z,99.90
2023-03-04T01:08:28.437Z,99.90
2023-03-04T01:10:58.305Z,99.90
2023-03-04T01:13:28.281Z,99.90
2023-03-04T01:15:59.576Z,99.90
2023-03-04T01:18:29.566Z,99.90
2023-03-04T01:20:59.798Z,99.90
2023-03-04T01:23:30.620Z,99.90
2023-03-04T01:26:00.522Z,99.90
2023-03-04T01:28:29.819Z,99.90
2023-03-04T01:30:59.574Z,99.90
2023-03-04T01:33:28.908Z,99.90
2023-03-04T01:35:58.650Z,99.90
2023-03-04T01:38:29.566Z,99.90
2023-03-04T01:41:00.096Z,99.90
2023-03-04T01:43:31.362Z,99.90
2023-03-04T01:46:01.373Z,99.90
2023-03-04T01:48:34.378Z,99.90
2023-03-04T01:51:04.362Z,99.90
2023-03-04T01:53:35.569Z,99.90
2023-03-04T01:56:14.265Z,99.90
2023-03-04T01:58:45.165Z,99.90
2023-03-04T02:01:16.370Z,99.90
2023-03-04T02:03:45.707Z,99.90
2023-03-04T02:06:15.717Z,99.90
2023-03-04T02:08:46.534Z,99.90
2023-03-04T02:11:16.219Z,99.90
2023-03-04T02:13:45.661Z,99.90
2023-03-04T02:16:15.623Z,99.90
2023-03-04T02:18:45.079Z,99.90
2023-03-04T02:21:20.498Z,99.90
2023-03-04T02:23:59.293Z,99.90
2023-03-04T02:26:32.472Z,99.90
2023-03-04T02:29:03.151Z,99.90
2023-03-04T02:31:34.392Z,99.90
2023-03-04T02:34:06.085Z,99.90
2023-03-04T02:36:36.988Z,99.90
2023-03-04T02:39:09.604Z,99.90
2023-03-04T02:41:41.482Z,99.90
2023-03-04T02:44:19.476Z,99.90
2023-03-04T02:46:51.093Z,99.90
2023-03-04T02:49:21.947Z,99.90
2023-03-04T02:51:54.595Z,99.90
2023-03-04T02:54:25.335Z,99.90
2023-03-04T02:57:00.102Z,99.90
2023-03-04T02:59:29.713Z,99.90
2023-03-04T03:01:59.570Z,99.90
2023-03-04T03:04:29.714Z,99.90
2023-03-04T03:06:59.396Z,99.90
2023-03-04T03:09:28.746Z,99.90
2023-03-04T03:11:59.929Z,99.90
2023-03-04T03:14:29.249Z,99.90
2023-03-04T03:16:58.957Z,99.90
2023-03-04T03:19:29.031Z,99.90
2023-03-04T03:21:59.121Z,99.90
2023-03-04T03:24:28.657Z,99.90
2023-03-04T03:26:59.895Z,99.90
2023-03-04T03:29:29.632Z,99.90
2023-03-04T03:31:59.360Z,99.90
2023-03-04T03:34:29.653Z,99.90
2023-03-04T03:36:59.492Z,99.90
2023-03-04T03:39:28.821Z,99.90
2023-03-04T03:42:00.289Z,99.90
2023-03-04T03:44:29.757Z,99.90
2023-03-04T03:46:59.952Z,99.90
2023-03-04T03:49:29.307Z,99.90
2023-03-04T03:51:59.025Z,99.90
2023-03-04T03:54:28.431Z,99.90
2023-03-04T03:56:59.582Z,99.90
2023-03-04T03:59:28.952Z,99.90
2023-03-04T04:01:58.906Z,99.90
2023-03-04T04:04:28.456Z,99.90
2023-03-04T04:06:59.181Z,99.90
2023-03-04T04:09:29.033Z,99.90
2023-03-04T04:12:00.502Z,99.90
2023-03-04T04:14:29.837Z,99.90
2023-03-04T04:16:59.599Z,99.90
2023-03-04T04:19:29.191Z,99.90
2023-03-04T04:21:58.949Z,99.90
2023-03-04T04:24:28.625Z,99.90
2023-03-04T04:27:00.885Z,99.90
2023-03-04T04:29:30.265Z,99.90
2023-03-04T04:32:00.291Z,99.90
2023-03-04T04:34:29.661Z,99.90
2023-03-04T04:36:59.434Z,99.90
2023-03-04T04:39:28.839Z,99.90
2023-03-04T04:42:00.325Z,99.90
2023-03-04T04:44:29.865Z,99.90
2023-03-04T04:46:59.726Z,99.90
2023-03-04T04:49:29.648Z,99.90
2023-03-04T04:51:59.327Z,99.90
2023-03-04T04:54:28.727Z,99.90
2023-03-04T04:56:59.881Z,99.90
2023-03-04T04:59:29.387Z,99.90
2023-03-04T05:01:59.212Z,99.90
2023-03-04T05:04:29.009Z,99.90
2023-03-04T05:06:58.863Z,99.90
2023-03-04T05:09:28.142Z,99.90
2023-03-04T05:11:58.129Z,99.90
2023-03-04T05:14:29.402Z,99.90
2023-03-04T05:16:59.110Z,99.90
2023-03-04T05:19:28.464Z,99.90
2023-03-04T05:21:58.367Z,99.90
2023-03-04T05:24:27.962Z,99.90
2023-03-04T05:26:57.676Z,99.90
2023-03-04T05:29:28.541Z,99.90
2023-03-04T05:31:58.314Z,99.90
2023-03-04T05:34:27.688Z,99.90
2023-03-04T05:36:57.392Z,99.90
2023-03-04T05:39:26.908Z,99.90
2023-03-04T05:41:57.083Z,99.90
2023-03-04T05:44:27.890Z,99.90
2023-03-04T05:46:57.740Z,99.90
2023-03-04T05:49:27.131Z,99.90
2023-03-04T05:51:56.939Z,99.90
2023-03-04T05:54:26.242Z,99.90
2023-03-04T05:56:56.670Z,99.90
2023-03-04T05:59:27.733Z,99.90
2023-03-04T06:01:57.436Z,99.90
2023-03-04T06:04:27.183Z,99.90
2023-03-04T06:06:56.841Z,99.90
2023-03-04T06:09:26.293Z,99.90
2023-03-04T06:11:55.456Z,99.90
2023-03-04T06:14:25.242Z,99.90
2023-03-04T06:16:56.021Z,99.90
2023-03-04T06:19:25.666Z,99.90
2023-03-04T06:21:54.947Z,99.90
2023-03-04T06:24:24.906Z,99.90
2023-03-04T06:26:54.347Z,99.90
2023-03-04T06:29:24.783Z,99.90
2023-03-04T06:31:55.746Z,99.90
2023-03-04T06:34:25.870Z,99.90
2023-03-04T06:36:55.250Z,99.90
2023-03-04T06:39:24.976Z,99.90
2023-03-04T06:41:54.462Z,99.90
2023-03-04T06:44:24.190Z,99.90
2023-03-04T06:46:55.171Z,99.90
2023-03-04T06:49:24.993Z,99.90
2023-03-04T06:51:55.054Z,99.90
2023-03-04T06:54:24.946Z,99.90
2023-03-04T06:56:54.361Z,99.90
2023-03-04T06:59:25.518Z,99.90
2023-03-04T07:01:56.537Z,99.90
2023-03-04T07:04:26.356Z,99.90
2023-03-04T07:06:56.082Z,99.90
2023-03-04T07:09:25.952Z,99.90
2023-03-04T07:11:55.259Z,99.90
2023-03-04T07:14:25.166Z,99.90
2023-03-04T07:16:56.074Z,99.90
2023-03-04T07:19:26.025Z,99.90
2023-03-04T07:21:55.486Z,99.90
2023-03-04T07:24:25.260Z,99.90
2023-03-04T07:26:54.594Z,99.90
2023-03-04T07:29:24.241Z,99.90
2023-03-04T07:31:53.966Z,99.90
2023-03-04T07:34:25.238Z,99.90
2023-03-04T07:36:54.742Z,99.90
2023-03-04T07:39:24.617Z,99.90
2023-03-04T07:41:54.017Z,99.90
2023-03-04T07:44:24.884Z,99.90
2023-03-04T07:46:54.217Z,99.90
2023-03-04T07:49:25.366Z,99.90
2023-03-04T07:51:54.723Z,99.90
2023-03-04T07:54:24.355Z,99.90
2023-03-04T07:56:54.315Z,99.90
2023-03-04T07:59:24.270Z,99.90
2023-03-04T08:01:53.817Z,99.90
2023-03-04T08:04:25.531Z,99.90
2023-03-04T08:06:54.621Z,99.90
2023-03-04T08:09:24.750Z,99.90
2023-03-04T08:11:54.393Z,99.90
2023-03-04T08:14:24.325Z,99.90
2023-03-04T08:16:53.645Z,99.90
2023-03-04T08:19:26.018Z,99.90
2023-03-04T08:21:55.681Z,99.90
2023-03-04T08:24:25.374Z,99.90
2023-03-04T08:26:55.041Z,99.90
2023-03-04T08:29:26.213Z,99.90
2023-03-04T08:31:56.666Z,99.90
2023-03-04T08:34:29.947Z,99.90
2023-03-04T08:36:59.927Z,99.90
2023-03-04T08:39:29.761Z,99.90
2023-03-04T08:41:59.267Z,99.90
2023-03-04T08:44:29.106Z,99.90
2023-03-04T08:46:58.406Z,99.90
2023-03-04T08:49:29.852Z,99.90
2023-03-04T08:51:58.915Z,99.90
2023-03-04T08:54:28.697Z,99.90
2023-03-04T08:56:58.080Z,99.90
2023-03-04T08:59:27.888Z,99.90
2023-03-04T09:01:57.289Z,99.90
2023-03-04T09:04:27.202Z,99.90
2023-03-04T09:06:58.039Z,99.90
2023-03-04T09:09:27.998Z,99.90
2023-03-04T09:11:57.341Z,99.90
2023-03-04T09:14:27.049Z,99.90
2023-03-04T09:16:56.347Z,99.90
2023-03-04T09:19:26.193Z,99.90
2023-03-04T09:21:57.070Z,99.90
2023-03-04T09:24:27.194Z,99.90
2023-03-04T09:26:57.401Z,99.90
2023-03-04T09:29:27.240Z,99.90
2023-03-04T09:31:56.722Z,99.90
2023-03-04T09:34:26.480Z,98.90
2023-03-04T09:36:57.284Z,98.00
2023-03-04T09:39:27.130Z,98.80
2023-03-04T09:41:59.089Z,98.70
2023-03-04T09:44:32.591Z,97.80
2023-03-04T09:47:05.205Z,97.90
2023-03-04T09:49:35.019Z,97.90
2023-03-04T09:52:17.317Z,98.10
2023-03-04T09:55:08.213Z,98.20
2023-03-04T09:57:49.133Z,98.80
2023-03-04T10:00:22.862Z,99.90
2023-03-04T10:03:12.210Z,99.90
2023-03-04T10:05:45.826Z,99.70
2023-03-04T10:08:38.049Z,97.50
2023-03-04T10:11:15.144Z,97.90
2023-03-04T10:14:00.059Z,98.60
2023-03-04T10:16:36.583Z,98.30
2023-03-04T10:19:21.905Z,98.20
2023-03-04T10:21:53.309Z,97.70
2023-03-04T10:24:28.994Z,97.20
2023-03-04T10:27:05.216Z,97.20
2023-03-04T10:29:35.959Z,93.60
2023-03-04T10:32:06.285Z,91.40
2023-03-04T10:34:35.689Z,93.10
2023-03-04T10:37:09.080Z,94.70
2023-03-04T10:39:41.887Z,96.10
2023-03-04T10:42:29.125Z,96.30
2023-03-04T10:45:01.195Z,97.20
2023-03-04T10:47:32.166Z,98.00
2023-03-04T10:50:03.197Z,95.40
2023-03-04T10:52:34.552Z,95.00
2023-03-04T10:55:08.220Z,92.50
2023-03-04T10:57:40.224Z,90.10
2023-03-04T11:00:29.866Z,89.70
2023-03-04T11:03:30.236Z,83.80
2023-03-04T11:06:21.449Z,80.40
2023-03-04T11:08:58.664Z,75.30
2023-03-04T11:11:35.070Z,74.40
2023-03-04T11:14:16.540Z,70.30
2023-03-04T11:16:53.708Z,69.00
2023-03-04T11:19:26.963Z,69.70
2023-03-04T11:21:58.272Z,70.90
2023-03-04T11:24:32.231Z,69.70
2023-03-04T11:27:07.415Z,71.00
2023-03-04T11:29:42.369Z,69.00
2023-03-04T11:32:15.332Z,67.90
2023-03-04T11:34:51.076Z,70.20
2023-03-04T11:37:29.688Z,71.50
2023-03-04T11:40:05.536Z,70.00
2023-03-04T11:42:42.386Z,68.10
2023-03-04T11:45:28.198Z,63.80
2023-03-04T11:48:07.353Z,62.90
2023-03-04T11:50:50.455Z,63.70
2023-03-04T11:53:38.455Z,62.20
2023-03-04T11:56:20.201Z,63.60
2023-03-04T11:59:33.313Z,58.60
2023-03-04T12:02:13.923Z,59.40
2023-03-04T12:05:06.502Z,58.50
2023-03-04T12:07:56.111Z,60.00
2023-03-04T12:10:31.837Z,60.40
2023-03-04T12:13:37.456Z,58.00
2023-03-04T12:16:21.138Z,59.10
2023-03-04T12:19:08.256Z,60.40
2023-03-04T12:22:11.391Z,59.80
2023-03-04T12:24:57.965Z,59.50
2023-03-04T12:27:35.430Z,59.00
2023-03-04T12:30:09.394Z,60.50
2023-03-04T12:32:47.714Z,60.00
2023-03-04T12:35:32.911Z,61.50
2023-03-04T12:38:27.709Z,60.30
2023-03-04T12:41:05.965Z,63.80
2023-03-04T12:43:43.678Z,63.90
2023-03-04T12:46:33.463Z,65.50
2023-03-04T12:49:27.085Z,65.90
2023-03-04T12:52:05.143Z,66.40
2023-03-04T12:54:38.841Z,66.50
2023-03-04T12:57:14.073Z,67.10
2023-03-04T12:59:51.567Z,68.00
2023-03-04T13:02:37.716Z,68.50
2023-03-04T13:05:25.832Z,70.30
2023-03-04T13:08:05.189Z,69.40
2023-03-04T13:10:35.508Z,69.70
2023-03-04T13:13:06.054Z,69.70
2023-03-04T13:15:38.053Z,67.30
2023-03-04T13:18:35.369Z,67.60
2023-03-04T13:21:21.920Z,62.60
2023-03-04T13:23:52.050Z,62.60
2023-03-04T13:26:25.808Z,63.40
2023-03-04T13:29:10.277Z,63.70
2023-03-04T13:32:01.329Z,65.10
2023-03-04T13:34:54.340Z,64.30
2023-03-04T13:37:36.167Z,63.30
2023-03-04T13:40:37.099Z,63.30
2023-03-04T13:43:28.990Z,63.40
2023-03-04T13:45:58.728Z,64.30
2023-03-04T13:48:33.672Z,64.50
2023-03-04T13:51:04.283Z,64.90
2023-03-04T13:53:42.171Z,67.10
2023-03-04T13:56:35.873Z,64.70
2023-03-04T13:59:29.284Z,63.40
2023-03-04T14:02:01.995Z,63.00
2023-03-04T14:04:35.233Z,64.80
2023-03-04T14:07:20.341Z,63.80
2023-03-04T14:10:00.397Z,65.10
2023-03-04T14:12:32.341Z,66.40
2023-03-04T14:15:04.722Z,68.30
2023-03-04T14:17:37.348Z,68.90
2023-03-04T14:20:22.699Z,69.80
2023-03-04T14:22:53.117Z,69.70
2023-03-04T14:25:26.650Z,70.40
2023-03-04T14:28:05.831Z,72.90
2023-03-04T14:30:42.639Z,74.20
2023-03-04T14:33:19.632Z,75.80
2023-03-04T14:35:50.788Z,77.80
2023-03-04T14:38:25.955Z,79.80
2023-03-04T14:41:03.754Z,81.40
2023-03-04T14:43:38.147Z,81.50
2023-03-04T14:46:12.737Z,79.70
2023-03-04T14:48:50.143Z,80.80
2023-03-04T14:51:41.854Z,81.60
2023-03-04T14:54:33.090Z,83.20
2023-03-04T14:57:24.156Z,80.60
2023-03-04T14:59:54.592Z,80.30
2023-03-04T15:02:31.617Z,77.90
2023-03-04T15:05:16.488Z,78.60
2023-03-04T15:07:54.204Z,77.10
2023-03-04T15:10:26.929Z,75.80
2023-03-04T15:13:01.941Z,74.10
2023-03-04T15:15:49.664Z,73.40
2023-03-04T15:18:26.518Z,72.60
2023-03-04T15:20:58.026Z,72.90
2023-03-04T15:23:28.282Z,72.20
2023-03-04T15:26:00.615Z,70.50
2023-03-04T15:28:35.632Z,72.00
2023-03-04T15:31:05.557Z,71.60
2023-03-04T15:33:35.581Z,71.40
2023-03-04T15:36:06.018Z,70.80
2023-03-04T15:38:35.765Z,71.90
2023-03-04T15:41:06.511Z,69.70
2023-03-04T15:43:37.374Z,70.40
2023-03-04T15:46:07.533Z,69.80
2023-03-04T15:48:37.012Z,70.10
2023-03-04T15:51:15.553Z,70.10
2023-03-04T15:53:48.535Z,70.60
2023-03-04T15:56:20.925Z,70.60
2023-03-04T15:58:55.766Z,70.60
2023-03-04T16:01:26.485Z,70.20
2023-03-04T16:03:56.275Z,69.80
2023-03-04T16:06:30.574Z,70.00
2023-03-04T16:09:01.487Z,68.70
2023-03-04T16:11:44.673Z,69.00
2023-03-04T16:14:19.145Z,68.70
2023-03-04T16:16:50.741Z,69.70
2023-03-04T16:19:20.049Z,70.10
2023-03-04T16:21:50.137Z,69.70
2023-03-04T16:24:22.231Z,71.20
2023-03-04T16:26:53.069Z,70.90
2023-03-04T16:29:23.869Z,71.50
2023-03-04T16:31:56.302Z,71.30
2023-03-04T16:34:25.881Z,72.10
2023-03-04T16:36:55.537Z,72.20
2023-03-04T16:39:27.073Z,72.80
2023-03-04T16:41:56.947Z,73.40
2023-03-04T16:44:27.906Z,74.40
2023-03-04T16:46:57.551Z,74.70
2023-03-04T16:49:28.698Z,74.60
2023-03-04T16:51:58.454Z,75.20
2023-03-04T16:54:31.991Z,75.60
2023-03-04T16:57:02.052Z,75.80
2023-03-04T16:59:34.458Z,76.00
2023-03-04T17:02:04.245Z,76.50
2023-03-04T17:04:33.890Z,76.50
2023-03-04T17:07:03.749Z,77.70
2023-03-04T17:09:33.069Z,77.50
2023-03-04T17:12:02.741Z,77.80
2023-03-04T17:14:33.537Z,77.80
2023-03-04T17:17:04.962Z,77.80
2023-03-04T17:19:34.581Z,78.90
2023-03-04T17:22:05.265Z,78.60
2023-03-04T17:24:34.598Z,79.00
2023-03-04T17:27:04.557Z,80.00
2023-03-04T17:29:35.360Z,80.40
2023-03-04T17:32:05.138Z,80.50
2023-03-04T17:34:34.642Z,80.80
2023-03-04T17:37:04.459Z,81.40
2023-03-04T17:39:34.485Z,81.90
2023-03-04T17:42:04.831Z,82.30
2023-03-04T17:44:35.611Z,83.30
2023-03-04T17:47:05.889Z,83.50
2023-03-04T17:49:35.273Z,84.00
2023-03-04T17:52:06.091Z,85.30
2023-03-04T17:54:36.823Z,85.50
2023-03-04T17:57:07.195Z,86.70
2023-03-04T17:59:38.673Z,87.10
2023-03-04T18:02:08.279Z,87.70
2023-03-04T18:04:38.401Z,88.70
2023-03-04T18:07:08.690Z,90.00
2023-03-04T18:09:38.377Z,90.70
2023-03-04T18:12:08.326Z,91.40
2023-03-04T18:14:40.294Z,92.20
2023-03-04T18:17:09.689Z,92.70
2023-03-04T18:19:39.471Z,93.10
2023-03-04T18:22:09.391Z,93.50
2023-03-04T18:24:41.429Z,93.90
2023-03-04T18:27:10.981Z,94.40
2023-03-04T18:29:42.118Z,94.50
2023-03-04T18:32:11.574Z,94.70
2023-03-04T18:34:41.900Z,94.60
2023-03-04T18:37:11.794Z,94.90
2023-03-04T18:39:42.742Z,95.00
2023-03-04T18:42:12.900Z,95.00
2023-03-04T18:44:45.401Z,95.20
2023-03-04T18:47:15.518Z,95.50
2023-03-04T18:49:47.675Z,95.90
2023-03-04T18:52:17.618Z,96.00
2023-03-04T18:54:47.381Z,96.30
2023-03-04T18:57:17.245Z,96.20
2023-03-04T18:59:51.847Z,96.50
2023-03-04T19:02:26.564Z,96.40
2023-03-04T19:04:59.428Z,96.60
2023-03-04T19:07:28.839Z,96.60
2023-03-04T19:09:59.184Z,96.50
2023-03-04T19:12:28.654Z,96.70
2023-03-04T19:14:59.810Z,96.50
2023-03-04T19:17:32.887Z,96.40
2023-03-04T19:20:03.278Z,96.40
2023-03-04T19:22:32.574Z,96.40
2023-03-04T19:25:02.420Z,96.20
2023-03-04T19:27:32.754Z,96.30
2023-03-04T19:30:04.077Z,96.50
2023-03-04T19:32:33.601Z,96.40
2023-03-04T19:35:03.378Z,96.60
2023-03-04T19:37:32.766Z,96.30
2023-03-04T19:40:02.473Z,96.60
2023-03-04T19:42:31.827Z,96.50
2023-03-04T19:45:09.556Z,96.50
2023-03-04T19:47:39.500Z,96.50
2023-03-04T19:50:14.914Z,96.80
2023-03-04T19:52:44.656Z,97.00
2023-03-04T19:55:14.384Z,96.60
2023-03-04T19:57:43.839Z,96.70
2023-03-04T20:00:16.262Z,96.80
2023-03-04T20:02:48.100Z,96.90
2023-03-04T20:05:18.201Z,96.80
2023-03-04T20:07:47.602Z,96.80
2023-03-04T20:10:19.171Z,96.90
2023-03-04T20:12:48.694Z,96.80
2023-03-04T20:15:20.097Z,96.70
2023-03-04T20:17:49.018Z,96.60
2023-03-04T20:20:19.236Z,96.70
2023-03-04T20:22:48.610Z,96.80
2023-03-04T20:25:18.456Z,96.90
2023-03-04T20:27:47.838Z,97.00
2023-03-04T20:30:19.865Z,97.10
2023-03-04T20:32:50.330Z,97.30
2023-03-04T20:35:20.055Z,97.30
2023-03-04T20:37:49.838Z,97.50
2023-03-04T20:40:20.072Z,97.70
2023-03-04T20:42:49.726Z,97.80
2023-03-04T20:45:22.350Z,97.90
2023-03-04T20:47:52.059Z,98.10
2023-03-04T20:50:22.550Z,98.10
2023-03-04T20:52:52.045Z,98.40
2023-03-04T20:55:22.462Z,98.50
2023-03-04T20:57:52.116Z,98.70
2023-03-04T21:00:23.942Z,99.00
2023-03-04T21:02:53.266Z,98.90
2023-03-04T21:05:22.945Z,99.10
2023-03-04T21:07:52.373Z,99.10
2023-03-04T21:10:23.402Z,99.20
2023-03-04T21:12:52.918Z,99.50
2023-03-04T21:15:24.241Z,99.90
2023-03-04T21:17:53.912Z,99.90
2023-03-04T21:20:24.003Z,99.90
2023-03-04T21:22:53.672Z,99.90
2023-03-04T21:25:26.620Z,99.90
2023-03-04T21:27:56.277Z,99.90
2023-03-04T21:30:27.936Z,99.90
2023-03-04T21:32:57.356Z,99.90
2023-03-04T21:35:27.155Z,99.90
2023-03-04T21:37:56.510Z,99.90
2023-03-04T21:40:26.718Z,99.90
2023-03-04T21:42:56.334Z,99.90
2023-03-04T21:45:27.984Z,99.90
2023-03-04T21:47:57.344Z,99.90
2023-03-04T21:50:27.240Z,99.90
2023-03-04T21:52:56.590Z,99.90
2023-03-04T21:55:26.395Z,99.90
2023-03-04T21:57:56.141Z,99.90
2023-03-04T22:00:27.898Z,99.90
2023-03-04T22:02:57.227Z,99.90
2023-03-04T22:05:27.087Z,99.90
2023-03-04T22:07:56.508Z,99.90
2023-03-04T22:10:26.204Z,99.90
2023-03-04T22:12:55.670Z,99.90
2023-03-04T22:15:26.831Z,99.90
2023-03-04T22:17:56.128Z,99.90
2023-03-04T22:20:26.161Z,99.90
2023-03-04T22:22:55.587Z,99.90
2023-03-04T22:25:25.338Z,99.90
2023-03-04T22:27:54.756Z,99.90
2023-03-04T22:30:24.725Z,99.90
2023-03-04T22:32:55.592Z,99.90
2023-03-04T22:35:26.065Z,99.90
2023-03-04T22:37:55.743Z,99.90
2023-03-04T22:40:26.151Z,99.90
2023-03-04T22:42:55.651Z,99.90
2023-03-04T22:45:28.168Z,99.90
2023-03-04T22:47:59.085Z,99.90
2023-03-04T22:50:28.921Z,99.90
2023-03-04T22:52:58.404Z,99.90
2023-03-04T22:55:28.133Z,99.90
2023-03-04T22:57:57.431Z,99.90
2023-03-04T23:00:29.069Z,99.90
2023-03-04T23:03:00.378Z,99.90
2023-03-04T23:05:30.473Z,99.90
2023-03-04T23:07:59.972Z,99.90
2023-03-04T23:10:30.056Z,99.90
2023-03-04T23:13:01.334Z,99.90
2023-03-04T23:15:31.130Z,99.90
2023-03-04T23:18:02.054Z,99.90
2023-03-04T23:20:31.788Z,99.90
2023-03-04T23:23:01.113Z,99.90
2023-03-04T23:25:30.809Z,99.90
2023-03-04T23:28:00.269Z,99.90
2023-03-04T23:30:30.176Z,99.90
2023-03-04T23:33:01.016Z,99.90
2023-03-04T23:35:31.598Z,99.90
2023-03-04T23:38:01.051Z,99.90
2023-03-04T23:40:31.379Z,99.90
2023-03-04T23:43:00.823Z,99.90
2023-03-04T23:45:30.796Z,99.90
2023-03-04T23:48:01.680Z,99.90
2023-03-04T23:50:32.427Z,99.90
2023-03-04T23:53:02.095Z,99.90
2023-03-04T23:55:34.546Z,99.90
2023-03-04T23:58:03.832Z,99.90
